Time;durP1;ratioP1;P1;durP2;ratioP2;P2;SDS_P1;SDS_P2;PMS_P1;PMS_P2;Temp;Humidity;BMP_temperature;BMP_pressure;BME280_temperature;BME280_humidity;BME280_pressure;Samples;Min_cycle;Max_cycle;Signal;HPM_P1;HPM_P2
2022/02/19 10:11:46;;;;;;;3.85;2.17;;;4.70;99.90;;;;;;5090867;28;20536;-72
2022/02/19 10:14:30;;;;;;;16.73;2.85;;;4.80;99.90;;;;;;5090863;28;20226;-72
2022/02/19 10:17:20;;;;;;;4.65;2.58;;;4.80;99.90;;;;;;5090847;28;20164;-72
2022/02/19 10:19:49;;;;;;;13.48;2.53;;;4.90;99.90;;;;;;5091054;28;20198;-71
2022/02/19 10:22:17;;;;;;;7.93;2.70;;;4.90;99.90;;;;;;5090722;28;20172;-72
2022/02/19 10:24:48;;;;;;;9.95;2.63;;;5.00;99.90;;;;;;5089360;28;20258;-72
2022/02/19 10:27:15;;;;;;;5.57;2.75;;;5.20;99.90;;;;;;5090552;28;20171;-72
2022/02/19 10:29:52;;;;;;;7.47;2.33;;;5.20;99.90;;;;;;5090532;28;20222;-71
2022/02/19 10:32:19;;;;;;;3.17;2.40;;;5.30;99.90;;;;;;5090569;28;20156;-71
2022/02/19 10:35:01;;;;;;;16.00;2.90;;;5.30;99.90;;;;;;5090445;28;20202;-72
2022/02/19 10:37:28;;;;;;;6.47;2.30;;;5.30;99.90;;;;;;5090467;28;20228;-71
2022/02/19 10:39:56;;;;;;;8.18;2.42;;;5.20;99.90;;;;;;5090333;28;20174;-71
2022/02/19 10:42:33;;;;;;;6.72;3.25;;;5.20;99.90;;;;;;5090496;28;20172;-71
2022/02/19 10:45:06;;;;;;;2.83;2.05;;;5.30;99.90;;;;;;5090295;28;20201;-72
2022/02/19 10:47:32;;;;;;;5.65;2.25;;;5.30;99.90;;;;;;5090238;28;20172;-71
2022/02/19 10:50:09;;;;;;;5.22;3.05;;;5.40;99.90;;;;;;5090021;28;20245;-71
2022/02/19 10:52:37;;;;;;;8.52;2.15;;;5.30;99.90;;;;;;5090180;28;20168;-72
2022/02/19 10:55:05;;;;;;;5.03;2.90;;;5.20;99.90;;;;;;5090111;28;20640;-72
2022/02/19 10:57:37;;;;;;;4.97;2.20;;;5.20;99.90;;;;;;5090040;28;20581;-72
2022/02/19 11:00:14;;;;;;;4.63;2.05;;;5.20;99.90;;;;;;5089988;28;20557;-72
2022/02/19 11:02:41;;;;;;;10.23;2.17;;;5.30;99.90;;;;;;5088675;28;20171;-71
2022/02/19 11:05:08;;;;;;;9.35;2.63;;;5.40;99.90;;;;;;5089939;28;20175;-71
2022/02/19 11:07:39;;;;;;;2.45;2.00;;;5.40;99.90;;;;;;5089880;28;20659;-72
2022/02/19 11:10:14;;;;;;;11.68;2.50;;;5.40;99.90;;;;;;5089539;28;20219;-73
2022/02/19 11:12:41;;;;;;;5.40;2.08;;;5.50;99.90;;;;;;5089719;28;20163;-72
2022/02/19 11:15:08;;;;;;;12.25;2.22;;;5.50;99.90;;;;;;5088320;28;20168;-72
2022/02/19 11:17:34;;;;;;;2.15;1.92;;;5.50;99.90;;;;;;5089727;28;20164;-72
2022/02/19 11:20:05;;;;;;;6.85;2.13;;;5.50;99.90;;;;;;5089794;28;20524;-72
2022/02/19 11:22:34;;;;;;;5.93;2.42;;;5.40;99.90;;;;;;5079419;28;20247;-72
2022/02/19 11:25:01;;;;;;;3.08;1.98;;;5.50;99.90;;;;;;5075930;28;20164;-72
2022/02/19 11:27:33;;;;;;;3.67;1.80;;;5.50;99.90;;;;;;5074713;28;20172;-72
2022/02/19 11:30:04;;;;;;;6.03;1.80;;;5.50;99.90;;;;;;5075866;28;20285;-72
2022/02/19 11:32:32;;;;;;;3.67;2.00;;;5.40;99.90;;;;;;5075956;28;20164;-71
2022/02/19 11:34:58;;;;;;;3.42;1.83;;;5.40;99.90;;;;;;5074824;28;20654;-71
2022/02/19 11:37:25;;;;;;;2.60;1.98;;;5.40;99.90;;;;;;5075787;28;20164;-72
2022/02/19 11:40:03;;;;;;;8.23;1.98;;;5.40;99.90;;;;;;5075735;28;20247;-72
2022/02/19 11:42:44;;;;;;;3.03;2.20;;;5.50;99.90;;;;;;5075763;28;20168;-72
2022/02/19 11:45:21;;;;;;;3.42;2.28;;;5.70;99.90;;;;;;5074356;28;20298;-72
2022/02/19 11:47:49;;;;;;;4.72;2.88;;;5.80;99.90;;;;;;5075668;28;20180;-72
2022/02/19 11:50:22;;;;;;;4.07;1.80;;;6.10;99.90;;;;;;5075602;28;20269;-72
2022/02/19 11:53:13;;;;;;;4.60;2.05;;;6.30;99.90;;;;;;5075501;28;20199;-72
2022/02/19 11:55:43;;;;;;;8.95;1.95;;;6.30;99.90;;;;;;5075687;28;20161;-72
2022/02/19 11:58:15;;;;;;;2.40;2.30;;;6.30;99.90;;;;;;5075438;28;20156;-72
2022/02/19 12:00:56;;;;;;;4.78;1.98;;;6.20;99.90;;;;;;5075411;28;20165;-72
2022/02/19 12:03:23;;;;;;;4.88;2.03;;;6.10;99.90;;;;;;5075315;28;20183;-72
2022/02/19 12:06:22;;;;;;;10.57;2.10;;;6.00;99.90;;;;;;5075233;28;20176;-72
2022/02/19 12:08:48;;;;;;;13.18;2.38;;;6.10;99.90;;;;;;5075221;28;20255;-72
2022/02/19 12:11:18;;;;;;;4.18;1.80;;;6.10;99.90;;;;;;5074945;28;20295;-71
2022/02/19 12:13:46;;;;;;;2.58;1.90;;;6.20;99.90;;;;;;5075188;28;20165;-72
2022/02/19 12:16:34;;;;;;;3.60;2.25;;;6.30;99.90;;;;;;5075102;28;20171;-72
2022/02/19 12:19:03;;;;;;;6.60;2.00;;;6.30;99.90;;;;;;5075100;28;20165;-71
2022/02/19 12:21:33;;;;;;;3.00;1.98;;;6.30;99.90;;;;;;5074922;28;20177;-72
2022/02/19 12:24:21;;;;;;;2.42;1.85;;;6.30;99.90;;;;;;5074782;28;20169;-72
2022/02/19 12:27:04;;;;;;;12.18;2.70;;;6.60;99.90;;;;;;5073461;28;20173;-72
2022/02/19 12:29:35;;;;;;;5.28;1.88;;;6.30;99.90;;;;;;5074616;28;20260;-72
2022/02/19 12:32:09;;;;;;;6.15;2.10;;;6.30;99.90;;;;;;5074638;28;20165;-72
2022/02/19 12:34:47;;;;;;;9.18;2.08;;;6.30;99.90;;;;;;5072655;28;20183;-72
2022/02/19 12:37:13;;;;;;;7.55;2.63;;;6.50;99.90;;;;;;5074621;28;20161;-72
2022/02/19 12:39:43;;;;;;;5.55;2.17;;;6.60;99.90;;;;;;5074498;28;20251;-72
2022/02/19 12:42:15;;;;;;;2.75;1.83;;;6.60;99.90;;;;;;5074438;28;20252;-71
2022/02/19 12:44:41;;;;;;;3.53;2.05;;;6.50;99.90;;;;;;5073065;28;20328;-72
2022/02/19 12:47:08;;;;;;;3.58;2.45;;;6.50;99.90;;;;;;5074415;28;20168;-72
2022/02/19 12:49:34;;;;;;;6.82;1.80;;;6.60;99.90;;;;;;5074214;28;20167;-72
2022/02/19 12:52:02;;;;;;;3.42;1.98;;;6.60;99.90;;;;;;5072960;28;20164;-72
2022/02/19 12:54:39;;;;;;;3.10;1.90;;;6.60;99.90;;;;;;5074164;28;20160;-71
2022/02/19 12:57:07;;;;;;;3.58;1.60;;;6.50;99.90;;;;;;5074170;28;20163;-72
2022/02/19 12:59:36;;;;;;;6.28;1.92;;;6.40;99.90;;;;;;5074172;28;20260;-72
2022/02/19 13:02:04;;;;;;;4.85;2.25;;;6.40;99.90;;;;;;5072970;28;20176;-72
2022/02/19 13:04:35;;;;;;;8.45;2.20;;;6.30;99.90;;;;;;5074176;28;20632;-69
2022/02/19 13:07:02;;;;;;;2.70;1.90;;;6.20;99.90;;;;;;5074123;28;20165;-69
2022/02/19 13:09:28;;;;;;;3.90;1.92;;;6.10;99.90;;;;;;5073847;28;20168;-69
2022/02/19 13:11:55;;;;;;;6.43;2.17;;;6.20;99.90;;;;;;5074043;28;20557;-69
2022/02/19 13:14:22;;;;;;;1.75;1.65;;;6.20;99.90;;;;;;5073977;28;20165;-69
2022/02/19 13:17:08;;;;;;;5.00;1.60;;;6.20;99.90;;;;;;5072603;28;20172;-70
2022/02/19 13:19:37;;;;;;;5.40;2.17;;;6.20;99.90;;;;;;5073970;28;20511;-69
2022/02/19 13:22:13;;;;;;;2.95;1.80;;;6.30;99.90;;;;;;5072571;28;20631;-69
2022/02/19 13:24:44;;;;;;;5.07;1.95;;;6.40;99.90;;;;;;5073852;28;20217;-70
2022/02/19 13:27:14;;;;;;;1.83;1.70;;;7.10;99.90;;;;;;5073791;28;20553;-69
2022/02/19 13:29:46;;;;;;;6.80;2.05;;;6.80;99.90;;;;;;5072396;28;20267;-69
2022/02/19 13:32:12;;;;;;;3.20;1.70;;;6.90;99.90;;;;;;5073660;28;20168;-69
2022/02/19 13:34:39;;;;;;;3.50;1.60;;;6.80;99.90;;;;;;5072360;28;20180;-69
2022/02/19 13:37:06;;;;;;;6.68;2.20;;;6.80;99.90;;;;;;5073640;28;20168;-69
2022/02/19 13:39:42;;;;;;;3.42;1.80;;;6.80;99.90;;;;;;5073578;28;20165;-70
2022/02/19 13:42:08;;;;;;;7.57;2.13;;;6.80;99.90;;;;;;5073658;28;20175;-70
2022/02/19 13:44:51;;;;;;;4.60;2.60;;;6.90;99.90;;;;;;5073195;28;20192;-70
2022/02/19 13:47:17;;;;;;;3.50;2.47;;;7.00;99.90;;;;;;5073516;28;20168;-69
2022/02/19 13:49:48;;;;;;;1.77;1.60;;;7.10;99.90;;;;;;5073358;28;20183;-69
2022/02/19 13:52:28;;;;;;;4.88;1.92;;;6.90;99.90;;;;;;5073402;28;20243;-70
2022/02/19 13:55:06;;;;;;;7.70;3.15;;;6.70;99.90;;;;;;5073451;28;20167;-70
2022/02/19 13:57:32;;;;;;;5.50;2.88;;;6.60;99.90;;;;;;5072042;28;20213;-70
2022/02/19 14:00:08;;;;;;;5.38;1.77;;;6.50;99.90;;;;;;5073394;28;20246;-70
2022/02/19 14:02:33;;;;;;;3.13;1.80;;;6.50;99.90;;;;;;5073265;28;20171;-70
2022/02/19 14:05:02;;;;;;;2.45;1.58;;;6.50;99.90;;;;;;5073264;28;20176;-70
2022/02/19 14:07:28;;;;;;;3.60;2.58;;;6.60;99.90;;;;;;5071958;28;20586;-69
2022/02/19 14:10:08;;;;;;;4.53;1.50;;;6.60;99.90;;;;;;5072991;28;20224;-70
2022/02/19 14:12:41;;;;;;;6.60;1.92;;;6.70;99.90;;;;;;5073165;28;20626;-70
2022/02/19 14:15:10;;;;;;;2.25;1.98;;;6.80;99.90;;;;;;5073214;28;20172;-69
2022/02/19 14:17:43;;;;;;;5.90;1.80;;;6.80;99.90;;;;;;5073139;28;20622;-69
2022/02/19 14:20:14;;;;;;;3.45;2.20;;;6.70;99.90;;;;;;5073126;28;20263;-69
2022/02/19 14:22:45;;;;;;;3.80;1.80;;;6.70;99.90;;;;;;5072666;28;20481;-69
2022/02/19 14:25:21;;;;;;;3.85;1.73;;;6.80;99.90;;;;;;5073139;28;20196;-69
2022/02/19 14:27:58;;;;;;;4.85;2.55;;;6.80;99.90;;;;;;5073159;28;20557;-69
2022/02/19 14:30:26;;;;;;;3.33;2.10;;;6.70;99.90;;;;;;5072951;28;20257;-69
2022/02/19 14:32:53;;;;;;;5.93;1.77;;;6.70;99.90;;;;;;5072950;28;20160;-69
2022/02/19 14:35:19;;;;;;;4.68;1.77;;;6.70;99.90;;;;;;5073036;28;20530;-69
2022/02/19 14:37:46;;;;;;;4.07;1.50;;;6.70;99.90;;;;;;5072883;28;20199;-69
2022/02/19 14:40:12;;;;;;;2.03;1.90;;;6.70;99.90;;;;;;5072596;28;20192;-69
2022/02/19 14:42:38;;;;;;;4.20;1.60;;;6.80;99.90;;;;;;5072508;28;20176;-69
2022/02/19 14:45:05;;;;;;;4.93;2.35;;;6.80;99.90;;;;;;5072469;28;20188;-69
2022/02/19 14:47:30;;;;;;;1.75;1.65;;;6.80;99.90;;;;;;5072700;28;20169;-69
2022/02/19 14:49:57;;;;;;;2.08;1.75;;;6.80;99.90;;;;;;5072601;28;20258;-69
2022/02/19 14:52:24;;;;;;;2.25;1.80;;;6.90;99.90;;;;;;5072836;28;20290;-69
2022/02/19 14:54:50;;;;;;;8.23;2.13;;;6.90;99.90;;;;;;5071535;28;20176;-70
2022/02/19 14:57:17;;;;;;;6.68;1.88;;;6.90;99.90;;;;;;5074446;28;20225;-70
2022/02/19 14:59:42;;;;;;;1.63;1.52;;;7.00;99.90;;;;;;5076482;28;20156;-69
2022/02/19 15:02:08;;;;;;;2.80;1.65;;;7.00;99.90;;;;;;5076354;28;20175;-69
2022/02/19 15:04:33;;;;;;;6.82;2.05;;;7.00;99.90;;;;;;5076403;28;20260;-69
2022/02/19 15:07:01;;;;;;;4.45;1.50;;;7.00;99.90;;;;;;5076234;28;20168;-69
2022/02/19 15:09:27;;;;;;;1.60;1.50;;;7.00;99.90;;;;;;5076233;28;20192;-70
2022/02/19 15:11:52;;;;;;;2.10;1.50;;;6.90;99.90;;;;;;5076351;28;20253;-69
2022/02/19 15:14:20;;;;;;;3.20;1.60;;;6.90;99.90;;;;;;5076217;28;20630;-70
2022/02/19 15:16:47;;;;;;;3.70;2.05;;;6.90;99.90;;;;;;5076191;28;20697;-69
2022/02/19 15:19:13;;;;;;;2.85;2.20;;;6.80;99.90;;;;;;5075097;28;20268;-69
2022/02/19 15:21:39;;;;;;;6.57;2.35;;;6.80;99.90;;;;;;5076164;28;20589;-70
2022/02/19 15:24:04;;;;;;;5.15;2.70;;;6.70;99.90;;;;;;5076146;28;20176;-69
2022/02/19 15:26:31;;;;;;;6.07;2.13;;;6.60;99.90;;;;;;5076034;28;20171;-70
2022/02/19 15:28:56;;;;;;;2.63;2.00;;;6.50;99.90;;;;;;5074828;28;20587;-70
2022/02/19 15:31:23;;;;;;;3.03;2.15;;;6.50;99.90;;;;;;5075811;28;20279;-69
2022/02/19 15:33:49;;;;;;;11.02;2.55;;;6.50;99.90;;;;;;5075968;28;20168;-69
2022/02/19 15:36:14;;;;;;;6.28;2.45;;;6.40;99.90;;;;;;5075876;28;20523;-70
2022/02/19 15:38:40;;;;;;;4.15;2.05;;;6.40;99.90;;;;;;5075880;28;20168;-70
2022/02/19 15:41:06;;;;;;;2.10;1.73;;;6.50;99.90;;;;;;5075836;28;20215;-70
2022/02/19 15:43:32;;;;;;;3.83;2.00;;;6.50;99.90;;;;;;5075722;28;20203;-70
